Nearby METAR Reports

 

KSJC - San Jose, California, USA
Distance from station: NØ 14km
Oppdatert: 17/10/2019 14:53
Hovedsaklig skyet
Hovedsaklig skyet
 Vind fra SV
Vind: SV 6 km/h
Temperatur: 14°C
Duggpunkt: 14°C
Fuktighet: 100%
Barometer: 1012.9 hPa
Clouds: Hovedsaklig skyet
Visibility: 16 km
Cloud details: Few Clouds 30 m
Delvis skyet 549 m
Hovedsaklig skyet 1341 m
2019/10/17 12:53 KSJC 171253Z 23003KT 10SM FEW001 SCT018 BKN044 14/14 A2991 RMK AO2 RAE26 SLP129 P0000 T01440144
KNUQ - Moffett Nas/Mtn, California, USA
Distance from station: N 14km
Oppdatert: 17/10/2019 14:56

 
Barometer: 1013.5 hPa
2019/10/17 12:56 KNUQ 171256Z A2993 RMK AO2 SLP139 PWINO $
 
KPAO - Palo Alto, California, USA
Distance from station: NNV 23km
Oppdatert: 17/10/2019 02:47
NOT Current
Overskyet
Overskyet
 Vind fra NV
Vind: NV 17 km/h
Temperatur: 18°C
Duggpunkt: 9°C
Fuktighet: 56%
Barometer: 1012.9 hPa
Clouds: Overskyet
Visibility: 16 km
Cloud details: Overskyet 3658 m
2019/10/17 00:47 KPAO 170047Z 31009KT 10SM OVC120 18/09 A2991
KRHV - San Jose/Reid, California, USA
Distance from station: ØNØ 19km
Oppdatert: 17/10/2019 06:52
NOT Current
Overskyet
Overskyet
 Vind fra calm
Vind: Stille
Temperatur: 16°C
Duggpunkt: 9°C
Fuktighet: 63%
Barometer: 1012.9 hPa
Clouds: Overskyet
Visibility: 16 km
Cloud details: Overskyet 3048 m
2019/10/17 04:52 KRHV 170452Z 00000KT 10SM OVC100 16/09 A2991 RMK LAST
 
KOAK - Oakland, California, USA
Distance from station: NNV 50km
Oppdatert: 17/10/2019 14:53
Few Clouds
Few Clouds
 Vind fra VNV
Vind: VNV 13 km/h
Temperatur: 14°C
Duggpunkt: 12°C
Fuktighet: 88%
Barometer: 1013.2 hPa
Clouds: Few Clouds
Visibility: 16 km
Cloud details: Few Clouds 213 m
2019/10/17 12:53 KOAK 171253Z 29007KT 10SM FEW007 14/12 A2992 RMK AO2 SLP132 T01440122
KSQL - San Carlos Airpo, California, USA
Distance from station: NV 34km
Oppdatert: 17/10/2019 05:58
NOT Current
Hovedsaklig skyet
Hovedsaklig skyet
 Vind fra calm
Vind: Stille
Temperatur: 17°C
Duggpunkt: 9°C
Fuktighet: 59%
Barometer: 1012.9 hPa
Clouds: Hovedsaklig skyet
Visibility: 16 km
Cloud details: Few Clouds 305 m
Hovedsaklig skyet 5486 m
2019/10/17 03:58 KSQL 170358Z 00000KT 10SM FEW010 BKN180 17/09 A2991 RMK LAST
 
KSFO - San Francisco, California, USA
Distance from station: NV 49km
Oppdatert: 17/10/2019 14:56
Few Clouds
Few Clouds
 Vind fra V
Vind: V 15 km/h
Temperatur: 13°C
Duggpunkt: 11°C
Fuktighet: 88%
Barometer: 1013.5 hPa
Clouds: Few Clouds
Visibility: 16 km
Cloud details: Few Clouds 244 m
2019/10/17 12:56 KSFO 171256Z 27008KT 10SM FEW008 13/11 A2993 RMK AO2 SLP133 T01330111
KE16 - San Martin, California, USA
Distance from station: ØSØ 43km
Oppdatert: 17/10/2019 14:55
Overskyet
Overskyet
 Vind fra ØSØ
Vind: ØSØ 6 km/h
Temperatur: 13°C
Duggpunkt: 9°C
Fuktighet: 77%
Barometer: 1013.9 hPa
Clouds: Overskyet
Visibility: 16 km
Cloud details: Hovedsaklig skyet 579 m
Overskyet 792 m
2019/10/17 12:55 KE16 171255Z AUTO 11003KT 10SM BKN019 OVC026 13/09 A2994 RMK AO2
 
KWVI - Watsonville, California, USA
Distance from station: SSØ 44km
Oppdatert: 17/10/2019 14:53
Hovedsaklig skyet
Hovedsaklig skyet
 Vind fra NØ
Vind: NØ 6 km/h
Temperatur: 12°C
Duggpunkt: 10°C
Fuktighet: 88%
Barometer: 1013.5 hPa
Clouds: Hovedsaklig skyet
Visibility: 16 km
Cloud details: Hovedsaklig skyet 945 m
2019/10/17 12:53 KWVI 171253Z AUTO 05003KT 10SM BKN031 12/10 A2993 RMK AO2 SLP133 T01220100
KHAF - Half Moon Bay, California, USA
Distance from station: VNV 50km
Oppdatert: 17/10/2019 15:00
Mist, Klart
Mist, Klart
 Vind fra NNV
Vind: NNV 13 km/h
Temperatur: 12°C
Duggpunkt: 12°C
Fuktighet: 100%
Barometer: 1013.9 hPa
Oversikt: Mist
Clouds: Klart
Visibility: 8 km
2019/10/17 13:00 KHAF 171300Z AUTO 34007KT 5SM BR CLR 12/12 A2994 RMK AO2
 
KHWD - Hayward, California, USA
Distance from station: N 44km
Oppdatert: 17/10/2019 14:54
Overskyet
Overskyet
 Vind fra V
Vind: V 9 km/h
Temperatur: 14°C
Duggpunkt: 13°C
Fuktighet: 94%
Barometer: 1013.2 hPa
Clouds: Overskyet
Visibility: 16 km
Cloud details: Overskyet 305 m
2019/10/17 12:54 KHWD 171254Z AUTO 28005KT 10SM OVC010 14/13 A2992 RMK AO2 CIG 008V013 SLP140 T01440128
KLVK - Livermore, California, USA
Distance from station: NNØ 51km
Oppdatert: 17/10/2019 14:53
Hovedsaklig skyet
Hovedsaklig skyet
 Vind fra V
Vind: V 15 km/h
Temperatur: 14°C
Duggpunkt: 12°C
Fuktighet: 88%
Barometer: 1012.5 hPa
Clouds: Hovedsaklig skyet
Visibility: 16 km
Cloud details: Hovedsaklig skyet 457 m
2019/10/17 12:53 KLVK 171253Z AUTO 27008KT 10SM BKN015 14/12 A2990 RMK AO2 SLP123 T01440122